createdAt,value
2022-12-25T00:01:22.367Z,7.95
2022-12-25T00:03:49.444Z,7.93
2022-12-25T00:06:15.901Z,7.93
2022-12-25T00:08:42.321Z,7.96
2022-12-25T00:11:14.210Z,7.92
2022-12-25T00:13:41.028Z,7.95
2022-12-25T00:16:09.652Z,7.96
2022-12-25T00:18:36.231Z,8.01
2022-12-25T00:21:05.636Z,7.99
2022-12-25T00:23:32.499Z,8.02
2022-12-25T00:25:58.945Z,8.02
2022-12-25T00:28:25.876Z,8.02
2022-12-25T00:30:52.413Z,7.98
2022-12-25T00:33:19.035Z,7.99
2022-12-25T00:35:45.548Z,7.98
2022-12-25T00:38:11.918Z,7.97
2022-12-25T00:40:43.057Z,7.97
2022-12-25T00:43:09.983Z,7.92
2022-12-25T00:45:36.449Z,7.96
2022-12-25T00:48:03.033Z,7.97
2022-12-25T00:50:29.483Z,7.98
2022-12-25T00:52:55.797Z,8.00
2022-12-25T00:55:22.131Z,8.01
2022-12-25T00:57:48.519Z,8.05
2022-12-25T01:00:15.440Z,8.04
2022-12-25T01:02:41.896Z,8.05
2022-12-25T01:08:18.719Z,8.04
2022-12-25T01:10:45.055Z,8.04
2022-12-25T01:13:11.407Z,7.98
2022-12-25T01:15:37.715Z,8.04
2022-12-25T01:18:07.776Z,8.05
2022-12-25T01:20:35.162Z,8.03
2022-12-25T01:23:01.520Z,8.06
2022-12-25T01:25:27.873Z,8.06
2022-12-25T01:27:54.296Z,8.08
2022-12-25T01:30:20.670Z,8.08
2022-12-25T01:32:47.001Z,8.04
2022-12-25T01:35:13.407Z,8.11
2022-12-25T01:37:39.731Z,8.07
2022-12-25T01:40:07.128Z,8.05
2022-12-25T01:42:33.648Z,8.06
2022-12-25T01:45:27.423Z,8.07
2022-12-25T01:47:53.820Z,8.03
2022-12-25T01:50:20.878Z,8.04
2022-12-25T01:52:48.132Z,8.07
2022-12-25T01:55:14.961Z,8.09
2022-12-25T01:57:43.031Z,8.06
2022-12-25T02:00:10.806Z,8.07
2022-12-25T02:02:37.666Z,8.10
2022-12-25T02:05:11.988Z,8.11
2022-12-25T02:07:42.939Z,8.06
2022-12-25T02:10:10.838Z,8.08
2022-12-25T02:12:38.503Z,7.93
2022-12-25T02:15:15.389Z,8.00
2022-12-25T02:18:02.786Z,7.94
2022-12-25T02:20:44.273Z,7.93
2022-12-25T02:23:28.884Z,7.95
2022-12-25T02:26:16.928Z,7.88
2022-12-25T02:28:50.134Z,7.88
2022-12-25T02:31:36.455Z,7.89
2022-12-25T02:34:11.524Z,7.87
2022-12-25T02:36:48.932Z,7.89
2022-12-25T02:39:44.247Z,7.90
2022-12-25T02:42:16.487Z,7.85
2022-12-25T02:45:06.053Z,7.84
2022-12-25T02:47:53.045Z,7.85
2022-12-25T02:50:39.289Z,7.79
2022-12-25T02:53:27.680Z,7.82
2022-12-25T02:56:14.655Z,7.84
2022-12-25T02:59:01.556Z,7.83
2022-12-25T03:01:51.382Z,7.77
2022-12-25T03:04:41.571Z,7.79
2022-12-25T03:07:15.791Z,7.71
2022-12-25T03:10:21.521Z,7.71
2022-12-25T03:13:04.109Z,7.70
2022-12-25T03:15:51.469Z,7.74
2022-12-25T03:18:22.266Z,7.74
2022-12-25T03:21:07.308Z,7.71
2022-12-25T03:23:53.730Z,7.70
2022-12-25T03:26:38.536Z,7.66
2022-12-25T03:29:04.925Z,7.71
2022-12-25T03:31:45.291Z,7.71
2022-12-25T03:34:35.922Z,7.69
2022-12-25T03:37:45.634Z,7.73
2022-12-25T03:40:51.271Z,7.73
2022-12-25T03:43:57.066Z,7.64
2022-12-25T03:46:55.850Z,7.64
2022-12-25T03:49:48.718Z,7.73
2022-12-25T03:52:37.433Z,7.66
2022-12-25T03:55:26.953Z,7.63
2022-12-25T03:58:11.935Z,7.66
2022-12-25T04:00:56.675Z,7.68
2022-12-25T04:03:41.576Z,7.62
2022-12-25T04:06:26.317Z,7.61
2022-12-25T04:09:11.168Z,7.63
2022-12-25T04:12:02.027Z,7.67
2022-12-25T04:14:48.148Z,7.67
2022-12-25T04:17:32.991Z,7.73
2022-12-25T04:20:17.761Z,7.69
2022-12-25T04:23:02.541Z,7.76
2022-12-25T04:25:47.461Z,7.76
2022-12-25T04:28:32.121Z,7.75
2022-12-25T04:31:20.162Z,7.76
2022-12-25T04:34:04.979Z,7.74
2022-12-25T04:36:31.367Z,7.76
2022-12-25T04:38:57.701Z,7.76
2022-12-25T04:41:24.099Z,7.75
2022-12-25T04:43:50.464Z,7.76
2022-12-25T04:46:16.837Z,7.74
2022-12-25T04:48:43.243Z,7.75
2022-12-25T04:51:21.084Z,7.74
2022-12-25T04:53:48.933Z,7.75
2022-12-25T04:56:16.472Z,7.69
2022-12-25T04:58:43.164Z,7.75
2022-12-25T05:01:10.664Z,7.77
2022-12-25T05:03:37.590Z,7.80
2022-12-25T05:06:05.339Z,7.77
2022-12-25T05:08:34.026Z,7.80
2022-12-25T05:11:04.492Z,7.82
2022-12-25T05:13:31.723Z,7.79
2022-12-25T05:15:58.172Z,7.78
2022-12-25T05:18:24.750Z,7.76
2022-12-25T05:20:53.179Z,7.75
2022-12-25T05:23:19.781Z,7.76
2022-12-25T05:25:46.202Z,7.78
2022-12-25T05:28:12.534Z,7.76
2022-12-25T05:30:39.419Z,7.75
2022-12-25T05:33:05.872Z,7.78
2022-12-25T05:35:32.379Z,7.79
2022-12-25T05:37:58.713Z,7.69
2022-12-25T05:40:25.122Z,7.54
2022-12-25T05:42:51.448Z,7.48
2022-12-25T05:45:17.936Z,7.44
2022-12-25T05:47:44.300Z,7.44
2022-12-25T05:50:10.955Z,7.47
2022-12-25T05:52:37.413Z,7.47
2022-12-25T05:55:03.965Z,7.45
2022-12-25T05:57:31.777Z,7.46
2022-12-25T05:59:58.164Z,7.46
2022-12-25T06:02:25.364Z,7.46
2022-12-25T06:04:51.898Z,7.51
2022-12-25T06:07:18.196Z,7.49
2022-12-25T06:09:44.583Z,7.50
2022-12-25T06:12:10.920Z,7.47
2022-12-25T06:14:37.235Z,7.50
2022-12-25T06:17:03.701Z,7.52
2022-12-25T06:19:30.208Z,7.52
2022-12-25T06:21:56.581Z,7.51
2022-12-25T06:24:23.614Z,7.49
2022-12-25T06:26:50.200Z,7.52
2022-12-25T06:29:16.596Z,7.52
2022-12-25T06:31:43.034Z,7.55
2022-12-25T06:34:10.121Z,7.53
2022-12-25T06:36:38.391Z,7.53
2022-12-25T06:39:04.786Z,7.51
2022-12-25T06:41:31.322Z,7.53
2022-12-25T06:44:00.226Z,7.55
2022-12-25T06:46:29.177Z,7.55
2022-12-25T06:48:56.861Z,7.58
2022-12-25T06:51:25.973Z,7.56
2022-12-25T06:53:53.284Z,7.58
2022-12-25T06:56:22.242Z,7.59
2022-12-25T06:58:50.854Z,7.55
2022-12-25T07:01:21.179Z,7.61
2022-12-25T07:03:51.571Z,7.62
2022-12-25T07:06:17.959Z,7.66
2022-12-25T07:08:44.349Z,7.61
2022-12-25T07:11:10.849Z,7.62
2022-12-25T07:13:37.182Z,7.63
2022-12-25T07:16:05.227Z,7.65
2022-12-25T07:18:32.162Z,7.66
2022-12-25T07:21:01.186Z,7.69
2022-12-25T07:23:27.516Z,7.63
2022-12-25T07:25:55.429Z,7.63
2022-12-25T07:28:21.835Z,7.61
2022-12-25T07:30:48.239Z,7.63
2022-12-25T07:33:14.928Z,7.63
2022-12-25T07:35:41.476Z,7.64
2022-12-25T07:38:08.080Z,7.66
2022-12-25T07:40:35.395Z,7.68
2022-12-25T07:43:01.794Z,7.72
2022-12-25T07:45:28.183Z,7.70
2022-12-25T07:47:55.241Z,7.71
2022-12-25T07:50:21.806Z,7.73
2022-12-25T07:52:48.082Z,7.72
2022-12-25T07:55:14.508Z,7.76
2022-12-25T07:57:40.913Z,7.76
2022-12-25T08:00:07.831Z,7.74
2022-12-25T08:08:15.698Z,7.71
2022-12-25T08:10:48.595Z,7.66
2022-12-25T08:13:14.986Z,7.70
2022-12-25T08:15:41.965Z,7.68
2022-12-25T08:18:08.364Z,7.69
2022-12-25T08:20:35.050Z,7.67
2022-12-25T08:23:01.477Z,7.72
2022-12-25T08:25:27.876Z,7.80
2022-12-25T08:27:54.273Z,7.79
2022-12-25T08:30:20.618Z,7.82
2022-12-25T08:32:47.002Z,7.82
2022-12-25T08:35:13.380Z,7.83
2022-12-25T08:37:39.956Z,7.81
2022-12-25T08:40:06.845Z,7.81
2022-12-25T08:42:33.127Z,7.85
2022-12-25T08:44:59.483Z,7.85
2022-12-25T08:47:25.812Z,7.92
2022-12-25T08:49:52.136Z,7.93
2022-12-25T08:52:18.505Z,7.95
2022-12-25T08:54:46.977Z,7.95
2022-12-25T08:57:13.278Z,7.96
2022-12-25T08:59:39.589Z,7.95
2022-12-25T09:02:06.310Z,8.00
2022-12-25T09:04:32.750Z,8.04
2022-12-25T09:07:00.166Z,7.98
2022-12-25T09:09:28.029Z,8.00
2022-12-25T09:11:54.542Z,8.01
2022-12-25T09:14:21.399Z,8.04
2022-12-25T09:16:50.260Z,8.02
2022-12-25T09:19:16.616Z,8.04
2022-12-25T09:21:42.947Z,8.06
2022-12-25T09:24:09.308Z,8.02
2022-12-25T09:26:36.962Z,8.03
2022-12-25T09:29:03.321Z,8.00
2022-12-25T09:31:30.371Z,8.01
2022-12-25T09:33:58.083Z,8.05
2022-12-25T09:36:25.004Z,8.08
2022-12-25T09:38:51.493Z,8.05
2022-12-25T09:41:29.722Z,8.10
2022-12-25T09:44:09.960Z,8.17
2022-12-25T09:46:43.551Z,8.13
2022-12-25T09:49:16.315Z,8.11
2022-12-25T09:51:45.437Z,8.24
2022-12-25T09:54:27.253Z,8.26
2022-12-25T09:56:53.605Z,8.25
2022-12-25T09:59:27.191Z,8.36
2022-12-25T10:02:24.890Z,8.35
2022-12-25T10:05:17.958Z,8.46
2022-12-25T10:07:53.182Z,8.52
2022-12-25T10:10:46.685Z,8.58
2022-12-25T10:13:49.299Z,8.65
2022-12-25T10:16:37.535Z,8.73
2022-12-25T10:19:13.049Z,8.76
2022-12-25T10:21:39.546Z,8.81
2022-12-25T10:24:10.255Z,8.86
2022-12-25T10:26:36.585Z,8.91
2022-12-25T10:29:13.061Z,8.98
2022-12-25T10:31:40.197Z,8.97
2022-12-25T10:34:07.016Z,9.02
2022-12-25T10:36:33.480Z,9.06
2022-12-25T10:38:59.927Z,9.09
2022-12-25T10:41:26.282Z,9.15
2022-12-25T10:43:57.455Z,9.23
2022-12-25T10:46:28.758Z,9.32
2022-12-25T10:48:58.718Z,9.35
2022-12-25T10:51:34.334Z,9.36
2022-12-25T10:54:20.525Z,9.31
2022-12-25T10:57:13.128Z,9.29
2022-12-25T10:59:47.732Z,9.33
2022-12-25T11:02:21.731Z,9.32
2022-12-25T11:04:48.593Z,9.29
2022-12-25T11:07:25.597Z,9.27
2022-12-25T11:10:05.762Z,9.24
2022-12-25T11:12:37.230Z,9.28
2022-12-25T11:15:26.208Z,9.28
2022-12-25T11:17:52.498Z,9.28
2022-12-25T11:20:20.165Z,9.26
2022-12-25T11:22:47.877Z,9.25
2022-12-25T11:25:20.925Z,9.26
2022-12-25T11:27:57.136Z,9.30
2022-12-25T11:30:23.597Z,9.30
2022-12-25T11:32:55.493Z,9.38
2022-12-25T11:35:27.654Z,9.34
2022-12-25T11:37:54.133Z,9.36
2022-12-25T11:40:34.613Z,9.39
2022-12-25T11:43:17.350Z,9.43
2022-12-25T11:45:52.312Z,9.50
2022-12-25T11:48:28.090Z,9.55
2022-12-25T11:50:59.189Z,9.59
2022-12-25T11:53:31.708Z,9.64
2022-12-25T11:56:02.120Z,9.67
2022-12-25T11:58:36.059Z,9.66
2022-12-25T12:01:09.044Z,9.68
2022-12-25T12:03:38.476Z,9.71
2022-12-25T12:06:25.777Z,9.76
2022-12-25T12:09:01.494Z,9.78
2022-12-25T12:11:43.598Z,9.84
2022-12-25T12:14:28.718Z,9.85
2022-12-25T12:16:55.225Z,9.96
2022-12-25T12:19:26.824Z,10.03
2022-12-25T12:21:55.922Z,10.13
2022-12-25T12:24:25.167Z,10.25
2022-12-25T12:27:19.273Z,10.51
2022-12-25T12:29:50.920Z,10.81
2022-12-25T12:32:44.806Z,11.25
2022-12-25T12:35:18.925Z,11.13
2022-12-25T12:37:51.045Z,11.30
2022-12-25T12:40:37.186Z,11.76
2022-12-25T12:43:06.168Z,11.64
2022-12-25T12:45:36.159Z,11.58
2022-12-25T12:48:14.595Z,11.70
2022-12-25T12:50:41.964Z,11.61
2022-12-25T12:53:23.700Z,11.52
2022-12-25T12:55:51.489Z,11.64
2022-12-25T12:58:34.943Z,11.62
2022-12-25T13:01:17.020Z,11.56
2022-12-25T13:03:57.846Z,11.43
2022-12-25T13:06:26.851Z,11.47
2022-12-25T13:09:25.408Z,11.35
2022-12-25T13:11:52.122Z,11.29
2022-12-25T13:14:21.477Z,11.29
2022-12-25T13:16:51.203Z,11.32
2022-12-25T13:19:23.479Z,11.31
2022-12-25T13:22:01.696Z,11.27
2022-12-25T13:24:30.952Z,11.24
2022-12-25T13:26:58.659Z,11.25
2022-12-25T13:29:32.229Z,11.14
2022-12-25T13:32:00.256Z,11.21
2022-12-25T13:34:32.668Z,11.15
2022-12-25T13:37:01.804Z,11.17
2022-12-25T13:39:28.489Z,11.17
2022-12-25T13:42:09.441Z,11.12
2022-12-25T13:44:44.440Z,11.16
2022-12-25T13:47:16.979Z,11.10
2022-12-25T13:49:43.365Z,11.08
2022-12-25T13:52:16.224Z,11.05
2022-12-25T13:55:01.168Z,11.08
2022-12-25T13:57:34.328Z,11.07
2022-12-25T14:00:01.560Z,11.09
2022-12-25T14:02:35.942Z,11.06
2022-12-25T14:05:03.447Z,11.09
2022-12-25T14:07:29.878Z,11.10
2022-12-25T14:09:59.916Z,11.10
2022-12-25T14:12:28.952Z,11.08
2022-12-25T14:14:56.889Z,11.08
2022-12-25T14:17:23.912Z,11.02
2022-12-25T14:20:05.729Z,11.02
2022-12-25T14:22:35.934Z,10.98
2022-12-25T14:25:02.363Z,11.06
2022-12-25T14:27:30.395Z,11.02
2022-12-25T14:29:58.982Z,10.90
2022-12-25T14:32:28.427Z,10.71
2022-12-25T14:34:58.612Z,10.63
2022-12-25T14:37:30.807Z,10.57
2022-12-25T14:40:03.226Z,10.56
2022-12-25T14:42:33.221Z,10.51
2022-12-25T14:45:26.425Z,10.48
2022-12-25T14:47:55.346Z,10.41
2022-12-25T14:50:43.699Z,10.42
2022-12-25T14:53:22.605Z,10.35
2022-12-25T14:55:51.875Z,10.29
2022-12-25T14:58:29.697Z,10.25
2022-12-25T15:00:58.518Z,10.24
2022-12-25T15:03:35.328Z,10.18
2022-12-25T15:06:07.064Z,10.20
2022-12-25T15:08:34.940Z,10.18
2022-12-25T15:11:03.042Z,10.13
2022-12-25T15:13:31.239Z,10.08
2022-12-25T15:16:03.029Z,10.08
2022-12-25T15:18:38.925Z,10.18
2022-12-25T15:21:05.507Z,10.05
2022-12-25T15:23:31.908Z,9.93
2022-12-25T15:25:58.279Z,9.87
2022-12-25T15:28:24.653Z,9.83
2022-12-25T15:30:51.009Z,9.80
2022-12-25T15:33:18.876Z,9.84
2022-12-25T15:35:45.599Z,9.89
2022-12-25T15:38:13.191Z,9.78
2022-12-25T15:40:40.705Z,9.81
2022-12-25T15:43:14.569Z,9.67
2022-12-25T15:45:53.815Z,9.66
2022-12-25T15:48:20.225Z,9.61
2022-12-25T15:50:46.716Z,9.66
2022-12-25T15:53:13.200Z,9.58
2022-12-25T15:55:39.807Z,9.48
2022-12-25T15:58:06.109Z,9.42
2022-12-25T16:00:32.463Z,9.36
2022-12-25T16:02:59.220Z,9.36
2022-12-25T16:05:26.626Z,9.32
2022-12-25T16:07:53.010Z,9.33
2022-12-25T16:10:20.321Z,9.34
2022-12-25T16:12:47.176Z,9.36
2022-12-25T16:15:15.233Z,9.31
2022-12-25T16:17:41.598Z,9.28
2022-12-25T16:20:09.128Z,9.23
2022-12-25T16:22:39.792Z,9.19
2022-12-25T16:25:13.130Z,9.14
2022-12-25T16:27:39.446Z,9.09
2022-12-25T16:30:06.889Z,9.06
2022-12-25T16:32:33.305Z,9.05
2022-12-25T16:34:59.693Z,8.96
2022-12-25T16:37:27.087Z,8.99
2022-12-25T16:39:53.377Z,8.95
2022-12-25T16:42:19.669Z,8.88
2022-12-25T16:44:46.092Z,8.83
2022-12-25T16:47:12.404Z,8.79
2022-12-25T16:49:38.727Z,8.69
2022-12-25T16:52:05.123Z,8.64
2022-12-25T16:54:31.402Z,8.58
2022-12-25T16:56:57.789Z,8.58
2022-12-25T16:59:24.115Z,8.60
2022-12-25T17:01:50.589Z,8.61
2022-12-25T17:04:17.018Z,8.82
2022-12-25T17:06:43.452Z,8.80
2022-12-25T17:09:10.525Z,8.69
2022-12-25T17:11:36.921Z,8.63
2022-12-25T17:14:04.233Z,8.46
2022-12-25T17:16:34.031Z,8.30
2022-12-25T17:19:08.114Z,8.24
2022-12-25T17:21:35.047Z,8.26
2022-12-25T17:24:03.969Z,8.33
2022-12-25T17:26:32.136Z,8.31
2022-12-25T17:28:59.145Z,8.26
2022-12-25T17:31:26.016Z,8.33
2022-12-25T17:33:52.564Z,8.30
2022-12-25T17:36:21.137Z,8.31
2022-12-25T17:38:48.463Z,8.26
2022-12-25T17:41:17.108Z,8.17
2022-12-25T17:43:45.562Z,8.12
2022-12-25T17:46:20.895Z,8.08
2022-12-25T17:48:49.810Z,8.06
2022-12-25T17:51:18.691Z,8.10
2022-12-25T17:53:47.985Z,8.12
2022-12-25T17:56:15.551Z,8.19
2022-12-25T17:58:42.263Z,8.74
2022-12-25T18:01:14.011Z,8.95
2022-12-25T18:03:40.800Z,9.17
2022-12-25T18:06:09.934Z,9.25
2022-12-25T18:08:39.649Z,9.34
2022-12-25T18:11:15.030Z,9.38
2022-12-25T18:13:44.675Z,9.44
2022-12-25T18:16:12.444Z,9.49
2022-12-25T18:18:39.656Z,9.60
2022-12-25T18:21:07.319Z,9.59
2022-12-25T18:23:35.028Z,9.59
2022-12-25T18:26:06.587Z,9.65
2022-12-25T18:28:33.419Z,9.66
2022-12-25T18:30:59.879Z,9.70
2022-12-25T18:33:26.555Z,9.67
2022-12-25T18:35:58.943Z,9.71
2022-12-25T18:38:27.427Z,9.71
2022-12-25T18:40:53.873Z,9.68
2022-12-25T18:43:20.752Z,9.65
2022-12-25T18:46:07.597Z,9.58
2022-12-25T18:48:35.265Z,9.68
2022-12-25T18:51:04.133Z,9.68
2022-12-25T18:53:31.385Z,9.60
2022-12-25T18:56:11.081Z,9.72
2022-12-25T18:58:38.242Z,9.71
2022-12-25T19:01:14.800Z,9.71
2022-12-25T19:03:41.521Z,9.69
2022-12-25T19:06:08.021Z,9.66
2022-12-25T19:08:34.341Z,9.65
2022-12-25T19:11:00.834Z,9.67
2022-12-25T19:13:27.217Z,9.59
2022-12-25T19:15:58.259Z,9.63
2022-12-25T19:18:24.755Z,9.60
2022-12-25T19:20:51.082Z,9.67
2022-12-25T19:23:17.400Z,9.68
2022-12-25T19:25:43.706Z,9.62
2022-12-25T19:28:10.044Z,9.56
2022-12-25T19:30:38.447Z,9.56
2022-12-25T19:33:07.385Z,9.54
2022-12-25T19:35:39.272Z,9.49
2022-12-25T19:38:05.614Z,9.45
2022-12-25T19:40:35.697Z,9.54
2022-12-25T19:43:02.258Z,9.58
2022-12-25T19:45:28.578Z,9.52
2022-12-25T19:47:55.885Z,9.56
2022-12-25T19:50:22.220Z,9.54
2022-12-25T19:52:48.496Z,9.53
2022-12-25T19:55:14.872Z,9.47
2022-12-25T19:57:41.245Z,9.47
2022-12-25T20:00:08.149Z,9.52
2022-12-25T20:02:34.616Z,9.54
2022-12-25T20:05:01.009Z,9.47
2022-12-25T20:07:27.323Z,9.48
2022-12-25T20:09:53.658Z,9.47
2022-12-25T20:12:20.153Z,9.44
2022-12-25T20:14:46.632Z,9.40
2022-12-25T20:17:16.025Z,9.39
2022-12-25T20:19:42.687Z,9.36
2022-12-25T20:22:08.977Z,9.30
2022-12-25T20:24:35.354Z,9.32
2022-12-25T20:27:01.713Z,9.28
2022-12-25T20:29:28.078Z,9.28
2022-12-25T20:31:54.453Z,9.31
2022-12-25T20:34:20.857Z,9.29
2022-12-25T20:36:49.072Z,9.28
2022-12-25T20:39:15.439Z,9.30
2022-12-25T20:41:41.799Z,9.31
2022-12-25T20:44:09.864Z,9.32
2022-12-25T20:46:36.734Z,9.41
2022-12-25T20:49:03.503Z,9.40
2022-12-25T20:51:30.096Z,9.48
2022-12-25T20:53:56.633Z,9.43
2022-12-25T20:56:25.012Z,9.51
2022-12-25T20:58:59.673Z,9.58
2022-12-25T21:01:27.667Z,9.55
2022-12-25T21:03:55.054Z,9.54
2022-12-25T21:06:22.888Z,9.49
2022-12-25T21:08:49.449Z,9.47
2022-12-25T21:11:16.680Z,9.43
2022-12-25T21:13:45.301Z,9.40
2022-12-25T21:16:14.704Z,9.38
2022-12-25T21:18:41.389Z,9.39
2022-12-25T21:21:08.899Z,9.37
2022-12-25T21:23:37.941Z,9.32
2022-12-25T21:26:10.826Z,9.30
2022-12-25T21:28:37.261Z,9.29
2022-12-25T21:31:05.578Z,9.27
2022-12-25T21:33:51.572Z,9.27
2022-12-25T21:36:23.998Z,9.33
2022-12-25T21:39:04.843Z,9.31
2022-12-25T21:41:32.995Z,9.28
2022-12-25T21:44:00.000Z,9.25
2022-12-25T21:46:27.519Z,9.26
2022-12-25T21:48:54.680Z,9.20
2022-12-25T21:51:42.839Z,9.17
2022-12-25T21:54:10.076Z,9.14
2022-12-25T21:56:44.121Z,9.07
2022-12-25T21:59:16.055Z,9.03
2022-12-25T22:01:43.095Z,9.07
2022-12-25T22:04:09.996Z,8.99
2022-12-25T22:06:55.239Z,8.94
2022-12-25T22:09:21.858Z,8.84
2022-12-25T22:12:06.823Z,8.82
2022-12-25T22:14:56.865Z,8.70
2022-12-25T22:17:48.009Z,8.79
2022-12-25T22:20:17.368Z,8.76
2022-12-25T22:22:44.463Z,8.76
2022-12-25T22:25:11.809Z,8.98
2022-12-25T22:27:39.470Z,9.23
2022-12-25T22:30:11.515Z,9.30
2022-12-25T22:32:38.128Z,9.57
2022-12-25T22:35:05.042Z,9.60
2022-12-25T22:37:32.157Z,9.73
2022-12-25T22:40:00.593Z,9.89
2022-12-25T22:42:27.105Z,9.89
2022-12-25T22:44:53.453Z,10.02
2022-12-25T22:47:19.853Z,10.14
2022-12-25T22:49:46.233Z,10.40
2022-12-25T22:52:12.618Z,10.56
2022-12-25T22:54:39.099Z,10.58
2022-12-25T22:57:05.790Z,10.65
2022-12-25T22:59:32.930Z,10.85
2022-12-25T23:02:00.333Z,10.72
2022-12-25T23:04:27.861Z,10.77
2022-12-25T23:06:54.220Z,10.70
2022-12-25T23:09:27.306Z,10.75
2022-12-25T23:11:55.434Z,10.74
2022-12-25T23:14:40.643Z,10.80
2022-12-25T23:17:30.867Z,10.82
2022-12-25T23:20:17.084Z,10.83
2022-12-25T23:23:02.531Z,10.97
2022-12-25T23:25:48.359Z,11.04
2022-12-25T23:28:14.787Z,10.96
2022-12-25T23:30:41.077Z,11.02
2022-12-25T23:33:07.417Z,11.13
2022-12-25T23:35:33.891Z,10.98
2022-12-25T23:38:00.219Z,11.17
2022-12-25T23:40:26.684Z,11.02
2022-12-25T23:42:53.009Z,11.04
2022-12-25T23:45:19.287Z,11.12
2022-12-25T23:47:45.589Z,11.11
2022-12-25T23:50:11.940Z,11.07
2022-12-25T23:52:38.292Z,11.05
2022-12-25T23:55:05.053Z,10.96
2022-12-25T23:57:31.392Z,11.02
2022-12-25T23:59:57.712Z,11.10
